sensor_id;sensor_type;location;lat;lon;timestamp;P1;durP1;ratioP1;P2;durP2;ratioP2
59756;SDS011;45631;51.962;5.974;2022-10-16T00:01:07;7.03;;;3.03;;
59756;SDS011;45631;51.962;5.974;2022-10-16T00:03:37;7.63;;;2.58;;
59756;SDS011;45631;51.962;5.974;2022-10-16T00:06:07;8.32;;;2.80;;
59756;SDS011;45631;51.962;5.974;2022-10-16T00:08:36;5.15;;;2.60;;
59756;SDS011;45631;51.962;5.974;2022-10-16T00:11:06;8.25;;;3.13;;
59756;SDS011;45631;51.962;5.974;2022-10-16T00:13:36;9.18;;;2.50;;
59756;SDS011;45631;51.962;5.974;2022-10-16T00:16:06;8.85;;;3.00;;
59756;SDS011;45631;51.962;5.974;2022-10-16T00:18:35;6.18;;;2.60;;
59756;SDS011;45631;51.962;5.974;2022-10-16T00:21:05;6.18;;;2.85;;
59756;SDS011;45631;51.962;5.974;2022-10-16T00:23:36;11.80;;;3.17;;
59756;SDS011;45631;51.962;5.974;2022-10-16T00:26:05;8.90;;;3.00;;
59756;SDS011;45631;51.962;5.974;2022-10-16T00:28:35;6.22;;;2.97;;
59756;SDS011;45631;51.962;5.974;2022-10-16T00:31:04;10.68;;;3.63;;
59756;SDS011;45631;51.962;5.974;2022-10-16T00:33:34;10.13;;;4.13;;
59756;SDS011;45631;51.962;5.974;2022-10-16T00:36:03;8.30;;;3.70;;
59756;SDS011;45631;51.962;5.974;2022-10-16T00:38:32;8.68;;;4.00;;
59756;SDS011;45631;51.962;5.974;2022-10-16T00:41:01;9.07;;;4.18;;
59756;SDS011;45631;51.962;5.974;2022-10-16T00:43:34;8.07;;;3.95;;
59756;SDS011;45631;51.962;5.974;2022-10-16T00:46:05;8.48;;;4.47;;
59756;SDS011;45631;51.962;5.974;2022-10-16T00:48:40;11.57;;;4.53;;
59756;SDS011;45631;51.962;5.974;2022-10-16T00:51:12;9.73;;;4.95;;
59756;SDS011;45631;51.962;5.974;2022-10-16T00:53:42;10.80;;;4.82;;
59756;SDS011;45631;51.962;5.974;2022-10-16T00:56:13;9.35;;;4.22;;
59756;SDS011;45631;51.962;5.974;2022-10-16T00:58:41;10.48;;;4.28;;
59756;SDS011;45631;51.962;5.974;2022-10-16T01:01:09;8.38;;;4.47;;
59756;SDS011;45631;51.962;5.974;2022-10-16T01:03:37;8.45;;;4.10;;
59756;SDS011;45631;51.962;5.974;2022-10-16T01:06:17;9.38;;;4.35;;
59756;SDS011;45631;51.962;5.974;2022-10-16T01:09:00;11.68;;;5.13;;
59756;SDS011;45631;51.962;5.974;2022-10-16T01:11:41;7.72;;;4.78;;
59756;SDS011;45631;51.962;5.974;2022-10-16T01:14:20;15.30;;;5.43;;
59756;SDS011;45631;51.962;5.974;2022-10-16T01:16:55;9.88;;;5.18;;
59756;SDS011;45631;51.962;5.974;2022-10-16T01:19:44;10.75;;;5.13;;
59756;SDS011;45631;51.962;5.974;2022-10-16T01:22:33;9.85;;;4.82;;
59756;SDS011;45631;51.962;5.974;2022-10-16T01:25:09;8.75;;;5.18;;
59756;SDS011;45631;51.962;5.974;2022-10-16T01:27:43;12.35;;;5.43;;
59756;SDS011;45631;51.962;5.974;2022-10-16T01:30:15;10.52;;;5.03;;
59756;SDS011;45631;51.962;5.974;2022-10-16T01:32:49;9.93;;;4.90;;
59756;SDS011;45631;51.962;5.974;2022-10-16T01:35:21;9.23;;;4.43;;
59756;SDS011;45631;51.962;5.974;2022-10-16T01:37:54;9.68;;;4.93;;
59756;SDS011;45631;51.962;5.974;2022-10-16T01:40:28;11.23;;;4.90;;
59756;SDS011;45631;51.962;5.974;2022-10-16T01:43:02;10.05;;;5.10;;
59756;SDS011;45631;51.962;5.974;2022-10-16T01:45:33;7.25;;;3.90;;
59756;SDS011;45631;51.962;5.974;2022-10-16T01:48:04;9.93;;;4.80;;
59756;SDS011;45631;51.962;5.974;2022-10-16T01:50:37;8.00;;;4.53;;
59756;SDS011;45631;51.962;5.974;2022-10-16T01:53:09;10.55;;;4.50;;
59756;SDS011;45631;51.962;5.974;2022-10-16T01:55:41;10.70;;;4.63;;
59756;SDS011;45631;51.962;5.974;2022-10-16T01:58:14;7.78;;;4.13;;
59756;SDS011;45631;51.962;5.974;2022-10-16T02:00:43;8.38;;;4.75;;
59756;SDS011;45631;51.962;5.974;2022-10-16T02:03:14;11.20;;;4.72;;
59756;SDS011;45631;51.962;5.974;2022-10-16T02:05:46;9.90;;;4.53;;
59756;SDS011;45631;51.962;5.974;2022-10-16T02:08:17;9.20;;;4.33;;
59756;SDS011;45631;51.962;5.974;2022-10-16T02:10:46;9.25;;;4.28;;
59756;SDS011;45631;51.962;5.974;2022-10-16T02:13:17;10.07;;;4.65;;
59756;SDS011;45631;51.962;5.974;2022-10-16T02:15:50;9.38;;;4.32;;
59756;SDS011;45631;51.962;5.974;2022-10-16T02:18:21;9.25;;;3.83;;
59756;SDS011;45631;51.962;5.974;2022-10-16T02:20:50;7.55;;;3.53;;
59756;SDS011;45631;51.962;5.974;2022-10-16T02:23:24;6.18;;;3.78;;
59756;SDS011;45631;51.962;5.974;2022-10-16T02:26:03;7.90;;;4.05;;
59756;SDS011;45631;51.962;5.974;2022-10-16T02:28:36;7.28;;;4.20;;
59756;SDS011;45631;51.962;5.974;2022-10-16T02:31:10;9.48;;;4.15;;
59756;SDS011;45631;51.962;5.974;2022-10-16T02:33:43;9.25;;;4.25;;
59756;SDS011;45631;51.962;5.974;2022-10-16T02:36:13;7.95;;;3.92;;
59756;SDS011;45631;51.962;5.974;2022-10-16T02:38:41;6.50;;;3.42;;
59756;SDS011;45631;51.962;5.974;2022-10-16T02:41:10;6.10;;;3.50;;
59756;SDS011;45631;51.962;5.974;2022-10-16T02:43:39;9.80;;;3.65;;
59756;SDS011;45631;51.962;5.974;2022-10-16T02:46:08;7.50;;;3.40;;
59756;SDS011;45631;51.962;5.974;2022-10-16T02:48:36;6.93;;;3.60;;
59756;SDS011;45631;51.962;5.974;2022-10-16T02:51:05;6.68;;;3.00;;
59756;SDS011;45631;51.962;5.974;2022-10-16T02:53:34;9.90;;;3.25;;
59756;SDS011;45631;51.962;5.974;2022-10-16T02:56:04;6.25;;;3.28;;
59756;SDS011;45631;51.962;5.974;2022-10-16T02:58:33;8.50;;;3.42;;
59756;SDS011;45631;51.962;5.974;2022-10-16T03:01:02;8.68;;;3.10;;
59756;SDS011;45631;51.962;5.974;2022-10-16T03:03:30;7.47;;;2.95;;
59756;SDS011;45631;51.962;5.974;2022-10-16T03:05:59;5.15;;;2.85;;
59756;SDS011;45631;51.962;5.974;2022-10-16T03:08:27;8.52;;;3.00;;
59756;SDS011;45631;51.962;5.974;2022-10-16T03:10:56;6.82;;;3.00;;
59756;SDS011;45631;51.962;5.974;2022-10-16T03:13:24;7.95;;;2.80;;
59756;SDS011;45631;51.962;5.974;2022-10-16T03:15:52;6.40;;;2.97;;
59756;SDS011;45631;51.962;5.974;2022-10-16T03:18:24;6.97;;;2.78;;
59756;SDS011;45631;51.962;5.974;2022-10-16T03:20:52;8.68;;;2.80;;
59756;SDS011;45631;51.962;5.974;2022-10-16T03:23:20;6.88;;;2.80;;
59756;SDS011;45631;51.962;5.974;2022-10-16T03:25:48;4.97;;;2.40;;
59756;SDS011;45631;51.962;5.974;2022-10-16T03:28:16;5.68;;;2.88;;
59756;SDS011;45631;51.962;5.974;2022-10-16T03:30:45;7.07;;;2.67;;
59756;SDS011;45631;51.962;5.974;2022-10-16T03:33:13;6.93;;;2.90;;
59756;SDS011;45631;51.962;5.974;2022-10-16T03:35:42;4.78;;;2.83;;
59756;SDS011;45631;51.962;5.974;2022-10-16T03:38:18;6.75;;;2.90;;
59756;SDS011;45631;51.962;5.974;2022-10-16T03:40:46;5.60;;;2.50;;
59756;SDS011;45631;51.962;5.974;2022-10-16T03:43:14;6.35;;;2.78;;
59756;SDS011;45631;51.962;5.974;2022-10-16T03:45:42;7.80;;;2.90;;
59756;SDS011;45631;51.962;5.974;2022-10-16T03:48:10;5.70;;;2.83;;
59756;SDS011;45631;51.962;5.974;2022-10-16T03:50:38;5.15;;;2.42;;
59756;SDS011;45631;51.962;5.974;2022-10-16T03:53:08;8.00;;;2.67;;
59756;SDS011;45631;51.962;5.974;2022-10-16T03:55:36;8.10;;;2.90;;
59756;SDS011;45631;51.962;5.974;2022-10-16T03:58:04;9.70;;;2.90;;
59756;SDS011;45631;51.962;5.974;2022-10-16T04:00:32;6.22;;;2.53;;
59756;SDS011;45631;51.962;5.974;2022-10-16T04:03:01;6.15;;;2.80;;
59756;SDS011;45631;51.962;5.974;2022-10-16T04:05:29;5.03;;;2.63;;
59756;SDS011;45631;51.962;5.974;2022-10-16T04:07:58;5.25;;;2.60;;
59756;SDS011;45631;51.962;5.974;2022-10-16T04:10:27;6.28;;;2.67;;
59756;SDS011;45631;51.962;5.974;2022-10-16T04:12:55;7.85;;;3.38;;
59756;SDS011;45631;51.962;5.974;2022-10-16T04:15:24;6.35;;;2.92;;
59756;SDS011;45631;51.962;5.974;2022-10-16T04:17:53;6.35;;;2.85;;
59756;SDS011;45631;51.962;5.974;2022-10-16T04:20:21;7.00;;;2.80;;
59756;SDS011;45631;51.962;5.974;2022-10-16T04:22:49;5.93;;;2.72;;
59756;SDS011;45631;51.962;5.974;2022-10-16T04:25:17;9.13;;;2.80;;
59756;SDS011;45631;51.962;5.974;2022-10-16T04:27:47;6.90;;;2.78;;
59756;SDS011;45631;51.962;5.974;2022-10-16T04:30:15;5.88;;;2.67;;
59756;SDS011;45631;51.962;5.974;2022-10-16T04:32:43;5.55;;;2.70;;
59756;SDS011;45631;51.962;5.974;2022-10-16T04:35:16;4.80;;;2.58;;
59756;SDS011;45631;51.962;5.974;2022-10-16T04:37:44;7.68;;;2.85;;
59756;SDS011;45631;51.962;5.974;2022-10-16T04:40:12;8.50;;;2.78;;
59756;SDS011;45631;51.962;5.974;2022-10-16T04:42:41;4.32;;;2.50;;
59756;SDS011;45631;51.962;5.974;2022-10-16T04:45:10;7.20;;;2.58;;
59756;SDS011;45631;51.962;5.974;2022-10-16T04:47:42;6.53;;;2.78;;
59756;SDS011;45631;51.962;5.974;2022-10-16T04:50:11;7.45;;;2.88;;
59756;SDS011;45631;51.962;5.974;2022-10-16T04:52:39;4.97;;;2.50;;
59756;SDS011;45631;51.962;5.974;2022-10-16T04:55:07;5.88;;;3.22;;
59756;SDS011;45631;51.962;5.974;2022-10-16T04:57:35;5.30;;;2.40;;
59756;SDS011;45631;51.962;5.974;2022-10-16T05:00:04;7.25;;;2.38;;
59756;SDS011;45631;51.962;5.974;2022-10-16T05:02:34;4.85;;;2.40;;
59756;SDS011;45631;51.962;5.974;2022-10-16T05:05:02;4.95;;;2.63;;
59756;SDS011;45631;51.962;5.974;2022-10-16T05:07:31;5.80;;;2.63;;
59756;SDS011;45631;51.962;5.974;2022-10-16T05:09:59;6.63;;;3.03;;
59756;SDS011;45631;51.962;5.974;2022-10-16T05:12:27;5.97;;;2.60;;
59756;SDS011;45631;51.962;5.974;2022-10-16T05:14:55;6.35;;;2.72;;
59756;SDS011;45631;51.962;5.974;2022-10-16T05:17:25;5.32;;;2.72;;
59756;SDS011;45631;51.962;5.974;2022-10-16T05:19:55;5.50;;;2.60;;
59756;SDS011;45631;51.962;5.974;2022-10-16T05:22:23;6.85;;;2.67;;
59756;SDS011;45631;51.962;5.974;2022-10-16T05:24:51;9.02;;;3.13;;
59756;SDS011;45631;51.962;5.974;2022-10-16T05:27:19;6.10;;;3.00;;
59756;SDS011;45631;51.962;5.974;2022-10-16T05:29:48;6.07;;;2.60;;
59756;SDS011;45631;51.962;5.974;2022-10-16T05:32:17;5.68;;;2.60;;
59756;SDS011;45631;51.962;5.974;2022-10-16T05:34:46;8.20;;;2.95;;
59756;SDS011;45631;51.962;5.974;2022-10-16T05:37:15;4.45;;;2.25;;
59756;SDS011;45631;51.962;5.974;2022-10-16T05:39:44;4.43;;;2.40;;
59756;SDS011;45631;51.962;5.974;2022-10-16T05:42:12;7.72;;;2.40;;
59756;SDS011;45631;51.962;5.974;2022-10-16T05:44:40;8.90;;;2.75;;
59756;SDS011;45631;51.962;5.974;2022-10-16T05:47:09;5.78;;;3.10;;
59756;SDS011;45631;51.962;5.974;2022-10-16T05:49:40;7.43;;;2.90;;
59756;SDS011;45631;51.962;5.974;2022-10-16T05:52:08;6.75;;;2.35;;
59756;SDS011;45631;51.962;5.974;2022-10-16T05:54:38;7.45;;;2.70;;
59756;SDS011;45631;51.962;5.974;2022-10-16T05:57:06;5.80;;;2.80;;
59756;SDS011;45631;51.962;5.974;2022-10-16T05:59:34;5.15;;;2.53;;
59756;SDS011;45631;51.962;5.974;2022-10-16T06:02:03;5.82;;;2.58;;
59756;SDS011;45631;51.962;5.974;2022-10-16T06:04:31;6.38;;;2.80;;
59756;SDS011;45631;51.962;5.974;2022-10-16T06:07:00;5.47;;;2.78;;
59756;SDS011;45631;51.962;5.974;2022-10-16T06:09:28;5.57;;;2.72;;
59756;SDS011;45631;51.962;5.974;2022-10-16T06:11:57;6.95;;;3.00;;
59756;SDS011;45631;51.962;5.974;2022-10-16T06:14:25;7.53;;;2.70;;
59756;SDS011;45631;51.962;5.974;2022-10-16T06:16:56;4.65;;;2.55;;
59756;SDS011;45631;51.962;5.974;2022-10-16T06:19:24;9.45;;;2.95;;
59756;SDS011;45631;51.962;5.974;2022-10-16T06:21:52;6.10;;;2.83;;
59756;SDS011;45631;51.962;5.974;2022-10-16T06:24:20;6.03;;;2.90;;
59756;SDS011;45631;51.962;5.974;2022-10-16T06:26:48;8.40;;;3.40;;
59756;SDS011;45631;51.962;5.974;2022-10-16T06:29:17;4.78;;;2.70;;
59756;SDS011;45631;51.962;5.974;2022-10-16T06:31:45;6.80;;;3.03;;
59756;SDS011;45631;51.962;5.974;2022-10-16T06:34:14;6.03;;;2.80;;
59756;SDS011;45631;51.962;5.974;2022-10-16T06:36:42;7.43;;;2.85;;
59756;SDS011;45631;51.962;5.974;2022-10-16T06:39:10;8.75;;;3.15;;
59756;SDS011;45631;51.962;5.974;2022-10-16T06:41:38;6.82;;;3.20;;
59756;SDS011;45631;51.962;5.974;2022-10-16T06:44:06;9.68;;;2.92;;
59756;SDS011;45631;51.962;5.974;2022-10-16T06:46:36;7.40;;;3.10;;
59756;SDS011;45631;51.962;5.974;2022-10-16T06:49:04;7.97;;;3.28;;
59756;SDS011;45631;51.962;5.974;2022-10-16T06:51:33;6.05;;;3.30;;
59756;SDS011;45631;51.962;5.974;2022-10-16T06:54:07;7.43;;;3.58;;
59756;SDS011;45631;51.962;5.974;2022-10-16T06:56:35;8.95;;;3.30;;
59756;SDS011;45631;51.962;5.974;2022-10-16T06:59:04;7.32;;;3.15;;
59756;SDS011;45631;51.962;5.974;2022-10-16T07:01:32;9.35;;;3.67;;
59756;SDS011;45631;51.962;5.974;2022-10-16T07:04:02;8.27;;;3.15;;
59756;SDS011;45631;51.962;5.974;2022-10-16T07:06:31;8.02;;;3.53;;
59756;SDS011;45631;51.962;5.974;2022-10-16T07:09:02;6.50;;;3.00;;
59756;SDS011;45631;51.962;5.974;2022-10-16T07:11:32;6.65;;;3.03;;
59756;SDS011;45631;51.962;5.974;2022-10-16T07:14:01;7.78;;;3.55;;
59756;SDS011;45631;51.962;5.974;2022-10-16T07:16:29;8.32;;;3.33;;
59756;SDS011;45631;51.962;5.974;2022-10-16T07:18:59;7.20;;;3.17;;
59756;SDS011;45631;51.962;5.974;2022-10-16T07:21:31;6.82;;;2.85;;
59756;SDS011;45631;51.962;5.974;2022-10-16T07:24:02;6.13;;;3.10;;
59756;SDS011;45631;51.962;5.974;2022-10-16T07:26:32;7.28;;;3.13;;
59756;SDS011;45631;51.962;5.974;2022-10-16T07:29:02;7.93;;;3.70;;
59756;SDS011;45631;51.962;5.974;2022-10-16T07:31:30;6.88;;;3.17;;
59756;SDS011;45631;51.962;5.974;2022-10-16T07:33:59;8.45;;;3.15;;
59756;SDS011;45631;51.962;5.974;2022-10-16T07:36:31;7.65;;;3.25;;
59756;SDS011;45631;51.962;5.974;2022-10-16T07:38:59;7.25;;;3.25;;
59756;SDS011;45631;51.962;5.974;2022-10-16T07:41:28;9.30;;;3.55;;
59756;SDS011;45631;51.962;5.974;2022-10-16T07:43:56;8.23;;;2.97;;
59756;SDS011;45631;51.962;5.974;2022-10-16T07:46:27;8.50;;;3.42;;
59756;SDS011;45631;51.962;5.974;2022-10-16T07:48:55;8.50;;;3.10;;
59756;SDS011;45631;51.962;5.974;2022-10-16T07:51:24;6.47;;;3.10;;
59756;SDS011;45631;51.962;5.974;2022-10-16T07:53:54;8.05;;;3.38;;
59756;SDS011;45631;51.962;5.974;2022-10-16T07:56:23;9.75;;;3.30;;
59756;SDS011;45631;51.962;5.974;2022-10-16T07:58:51;7.97;;;2.90;;
59756;SDS011;45631;51.962;5.974;2022-10-16T08:01:20;6.63;;;2.53;;
59756;SDS011;45631;51.962;5.974;2022-10-16T08:03:49;7.40;;;3.08;;
59756;SDS011;45631;51.962;5.974;2022-10-16T08:06:19;8.27;;;3.10;;
59756;SDS011;45631;51.962;5.974;2022-10-16T08:08:55;6.57;;;2.80;;
59756;SDS011;45631;51.962;5.974;2022-10-16T08:11:23;5.25;;;2.55;;
59756;SDS011;45631;51.962;5.974;2022-10-16T08:13:52;6.70;;;2.65;;
59756;SDS011;45631;51.962;5.974;2022-10-16T08:16:20;6.25;;;3.03;;
59756;SDS011;45631;51.962;5.974;2022-10-16T08:18:48;6.82;;;2.67;;
59756;SDS011;45631;51.962;5.974;2022-10-16T08:21:18;7.07;;;2.63;;
59756;SDS011;45631;51.962;5.974;2022-10-16T08:23:49;8.95;;;2.20;;
59756;SDS011;45631;51.962;5.974;2022-10-16T08:26:25;5.00;;;1.98;;
59756;SDS011;45631;51.962;5.974;2022-10-16T08:28:54;5.50;;;2.55;;
59756;SDS011;45631;51.962;5.974;2022-10-16T08:31:22;7.63;;;2.75;;
59756;SDS011;45631;51.962;5.974;2022-10-16T08:33:51;5.95;;;2.55;;
59756;SDS011;45631;51.962;5.974;2022-10-16T08:36:19;7.20;;;2.03;;
59756;SDS011;45631;51.962;5.974;2022-10-16T08:38:47;8.95;;;2.50;;
59756;SDS011;45631;51.962;5.974;2022-10-16T08:41:22;5.32;;;2.38;;
59756;SDS011;45631;51.962;5.974;2022-10-16T08:44:06;6.70;;;2.38;;
59756;SDS011;45631;51.962;5.974;2022-10-16T08:46:49;6.50;;;2.40;;
59756;SDS011;45631;51.962;5.974;2022-10-16T08:49:24;6.63;;;2.30;;
59756;SDS011;45631;51.962;5.974;2022-10-16T08:51:52;5.20;;;2.25;;
59756;SDS011;45631;51.962;5.974;2022-10-16T08:54:26;5.75;;;2.50;;
59756;SDS011;45631;51.962;5.974;2022-10-16T08:57:00;6.55;;;2.42;;
59756;SDS011;45631;51.962;5.974;2022-10-16T08:59:36;8.23;;;2.35;;
59756;SDS011;45631;51.962;5.974;2022-10-16T09:02:08;6.35;;;2.47;;
59756;SDS011;45631;51.962;5.974;2022-10-16T09:04:56;7.07;;;2.70;;
59756;SDS011;45631;51.962;5.974;2022-10-16T09:07:39;9.52;;;2.28;;
59756;SDS011;45631;51.962;5.974;2022-10-16T09:10:18;5.07;;;2.03;;
59756;SDS011;45631;51.962;5.974;2022-10-16T09:12:54;6.60;;;2.03;;
59756;SDS011;45631;51.962;5.974;2022-10-16T09:15:29;6.95;;;2.17;;
59756;SDS011;45631;51.962;5.974;2022-10-16T09:18:03;9.25;;;2.17;;
59756;SDS011;45631;51.962;5.974;2022-10-16T09:20:42;6.40;;;1.92;;
59756;SDS011;45631;51.962;5.974;2022-10-16T09:23:17;9.02;;;2.05;;
59756;SDS011;45631;51.962;5.974;2022-10-16T09:25:48;7.20;;;2.03;;
59756;SDS011;45631;51.962;5.974;2022-10-16T09:28:18;6.88;;;1.80;;
59756;SDS011;45631;51.962;5.974;2022-10-16T09:30:47;9.38;;;2.15;;
59756;SDS011;45631;51.962;5.974;2022-10-16T09:33:17;7.28;;;2.00;;
59756;SDS011;45631;51.962;5.974;2022-10-16T09:35:48;7.00;;;1.65;;
59756;SDS011;45631;51.962;5.974;2022-10-16T09:38:23;8.07;;;1.92;;
59756;SDS011;45631;51.962;5.974;2022-10-16T09:40:54;8.35;;;1.80;;
59756;SDS011;45631;51.962;5.974;2022-10-16T09:43:30;8.75;;;2.33;;
59756;SDS011;45631;51.962;5.974;2022-10-16T09:46:07;6.50;;;1.65;;
59756;SDS011;45631;51.962;5.974;2022-10-16T09:48:47;6.60;;;1.60;;
59756;SDS011;45631;51.962;5.974;2022-10-16T09:51:18;8.48;;;2.20;;
59756;SDS011;45631;51.962;5.974;2022-10-16T09:53:53;10.48;;;2.75;;
59756;SDS011;45631;51.962;5.974;2022-10-16T09:56:26;7.38;;;1.67;;
59756;SDS011;45631;51.962;5.974;2022-10-16T09:58:57;7.53;;;1.67;;
59756;SDS011;45631;51.962;5.974;2022-10-16T10:01:29;7.22;;;1.90;;
59756;SDS011;45631;51.962;5.974;2022-10-16T10:04:03;7.68;;;2.05;;
59756;SDS011;45631;51.962;5.974;2022-10-16T10:06:33;11.13;;;2.35;;
59756;SDS011;45631;51.962;5.974;2022-10-16T10:09:05;7.00;;;1.92;;
59756;SDS011;45631;51.962;5.974;2022-10-16T10:11:52;8.15;;;2.10;;
59756;SDS011;45631;51.962;5.974;2022-10-16T10:14:27;10.35;;;1.98;;
59756;SDS011;45631;51.962;5.974;2022-10-16T10:17:09;6.97;;;2.10;;
59756;SDS011;45631;51.962;5.974;2022-10-16T10:19:44;15.30;;;2.03;;
59756;SDS011;45631;51.962;5.974;2022-10-16T10:24:54;8.93;;;2.30;;
59756;SDS011;45631;51.962;5.974;2022-10-16T10:27:24;9.45;;;1.83;;
59756;SDS011;45631;51.962;5.974;2022-10-16T10:30:02;6.57;;;1.98;;
59756;SDS011;45631;51.962;5.974;2022-10-16T10:32:40;13.18;;;2.20;;
59756;SDS011;45631;51.962;5.974;2022-10-16T10:35:18;10.57;;;1.92;;
59756;SDS011;45631;51.962;5.974;2022-10-16T10:37:56;11.98;;;2.10;;
59756;SDS011;45631;51.962;5.974;2022-10-16T10:45:41;10.98;;;1.75;;
59756;SDS011;45631;51.962;5.974;2022-10-16T10:48:18;12.57;;;2.13;;
59756;SDS011;45631;51.962;5.974;2022-10-16T10:50:56;8.07;;;1.80;;
59756;SDS011;45631;51.962;5.974;2022-10-16T10:53:35;14.55;;;2.03;;
59756;SDS011;45631;51.962;5.974;2022-10-16T10:56:14;11.25;;;2.30;;
59756;SDS011;45631;51.962;5.974;2022-10-16T10:58:55;13.57;;;2.58;;
59756;SDS011;45631;51.962;5.974;2022-10-16T11:01:38;10.10;;;1.88;;
59756;SDS011;45631;51.962;5.974;2022-10-16T11:04:27;12.05;;;1.90;;
59756;SDS011;45631;51.962;5.974;2022-10-16T11:07:04;10.20;;;1.88;;
59756;SDS011;45631;51.962;5.974;2022-10-16T11:09:37;10.55;;;2.00;;
59756;SDS011;45631;51.962;5.974;2022-10-16T11:12:11;8.93;;;1.83;;
59756;SDS011;45631;51.962;5.974;2022-10-16T11:14:46;8.65;;;1.95;;
59756;SDS011;45631;51.962;5.974;2022-10-16T11:17:25;11.13;;;1.98;;
59756;SDS011;45631;51.962;5.974;2022-10-16T11:19:58;8.05;;;1.90;;
59756;SDS011;45631;51.962;5.974;2022-10-16T11:22:31;9.13;;;1.95;;
59756;SDS011;45631;51.962;5.974;2022-10-16T11:25:05;9.00;;;1.80;;
59756;SDS011;45631;51.962;5.974;2022-10-16T11:27:42;11.10;;;1.88;;
59756;SDS011;45631;51.962;5.974;2022-10-16T11:30:16;11.57;;;1.98;;
59756;SDS011;45631;51.962;5.974;2022-10-16T11:35:28;10.15;;;1.38;;
59756;SDS011;45631;51.962;5.974;2022-10-16T11:38:07;10.55;;;1.88;;
59756;SDS011;45631;51.962;5.974;2022-10-16T11:40:42;11.43;;;2.10;;
59756;SDS011;45631;51.962;5.974;2022-10-16T11:43:15;10.43;;;2.05;;
59756;SDS011;45631;51.962;5.974;2022-10-16T11:45:53;10.00;;;1.90;;
59756;SDS011;45631;51.962;5.974;2022-10-16T11:48:26;7.47;;;1.73;;
59756;SDS011;45631;51.962;5.974;2022-10-16T11:51:02;8.30;;;1.90;;
59756;SDS011;45631;51.962;5.974;2022-10-16T11:53:38;9.02;;;1.98;;
59756;SDS011;45631;51.962;5.974;2022-10-16T11:56:13;9.93;;;2.03;;
59756;SDS011;45631;51.962;5.974;2022-10-16T11:58:48;8.48;;;1.92;;
59756;SDS011;45631;51.962;5.974;2022-10-16T12:01:24;9.38;;;2.10;;
59756;SDS011;45631;51.962;5.974;2022-10-16T12:04:02;9.20;;;1.95;;
59756;SDS011;45631;51.962;5.974;2022-10-16T12:06:40;9.65;;;1.85;;
59756;SDS011;45631;51.962;5.974;2022-10-16T12:09:14;10.13;;;2.15;;
59756;SDS011;45631;51.962;5.974;2022-10-16T12:11:47;6.65;;;1.73;;
59756;SDS011;45631;51.962;5.974;2022-10-16T12:14:20;10.65;;;2.25;;
59756;SDS011;45631;51.962;5.974;2022-10-16T12:17:24;10.32;;;1.85;;
59756;SDS011;45631;51.962;5.974;2022-10-16T12:20:01;7.55;;;1.70;;
59756;SDS011;45631;51.962;5.974;2022-10-16T12:22:48;8.48;;;2.17;;
59756;SDS011;45631;51.962;5.974;2022-10-16T12:25:19;7.30;;;1.50;;
59756;SDS011;45631;51.962;5.974;2022-10-16T12:27:57;8.13;;;1.85;;
59756;SDS011;45631;51.962;5.974;2022-10-16T12:30:27;10.20;;;1.80;;
59756;SDS011;45631;51.962;5.974;2022-10-16T12:33:02;8.30;;;2.08;;
59756;SDS011;45631;51.962;5.974;2022-10-16T12:35:34;8.98;;;1.52;;
59756;SDS011;45631;51.962;5.974;2022-10-16T12:38:14;9.68;;;1.60;;
59756;SDS011;45631;51.962;5.974;2022-10-16T12:40:46;10.35;;;1.80;;
59756;SDS011;45631;51.962;5.974;2022-10-16T12:43:26;7.03;;;1.77;;
59756;SDS011;45631;51.962;5.974;2022-10-16T12:46:03;9.68;;;1.88;;
59756;SDS011;45631;51.962;5.974;2022-10-16T12:48:47;10.40;;;2.05;;
59756;SDS011;45631;51.962;5.974;2022-10-16T12:51:37;8.63;;;1.67;;
59756;SDS011;45631;51.962;5.974;2022-10-16T12:54:11;9.95;;;1.77;;
59756;SDS011;45631;51.962;5.974;2022-10-16T12:56:43;10.95;;;1.98;;
59756;SDS011;45631;51.962;5.974;2022-10-16T12:59:24;8.20;;;1.80;;
59756;SDS011;45631;51.962;5.974;2022-10-16T13:02:17;8.52;;;1.60;;
59756;SDS011;45631;51.962;5.974;2022-10-16T13:05:17;7.90;;;1.70;;
59756;SDS011;45631;51.962;5.974;2022-10-16T13:07:59;10.65;;;1.77;;
59756;SDS011;45631;51.962;5.974;2022-10-16T13:10:40;7.78;;;1.80;;
59756;SDS011;45631;51.962;5.974;2022-10-16T13:13:21;8.73;;;1.75;;
59756;SDS011;45631;51.962;5.974;2022-10-16T13:16:11;8.02;;;1.98;;
59756;SDS011;45631;51.962;5.974;2022-10-16T13:18:46;7.72;;;1.65;;
59756;SDS011;45631;51.962;5.974;2022-10-16T13:21:28;8.77;;;1.80;;
59756;SDS011;45631;51.962;5.974;2022-10-16T13:24:07;9.27;;;2.13;;
59756;SDS011;45631;51.962;5.974;2022-10-16T13:26:46;11.15;;;2.00;;
59756;SDS011;45631;51.962;5.974;2022-10-16T13:29:21;7.70;;;1.73;;
59756;SDS011;45631;51.962;5.974;2022-10-16T13:31:49;9.65;;;1.63;;
59756;SDS011;45631;51.962;5.974;2022-10-16T13:34:19;8.88;;;1.85;;
59756;SDS011;45631;51.962;5.974;2022-10-16T13:36:50;8.82;;;1.70;;
59756;SDS011;45631;51.962;5.974;2022-10-16T13:39:22;8.55;;;1.55;;
59756;SDS011;45631;51.962;5.974;2022-10-16T13:44:36;10.20;;;1.67;;
59756;SDS011;45631;51.962;5.974;2022-10-16T13:47:12;8.35;;;1.73;;
59756;SDS011;45631;51.962;5.974;2022-10-16T13:49:43;7.38;;;1.50;;
59756;SDS011;45631;51.962;5.974;2022-10-16T13:52:16;9.75;;;1.90;;
59756;SDS011;45631;51.962;5.974;2022-10-16T13:54:47;8.45;;;1.55;;
59756;SDS011;45631;51.962;5.974;2022-10-16T13:57:16;12.10;;;1.95;;
59756;SDS011;45631;51.962;5.974;2022-10-16T13:59:54;7.65;;;1.85;;
59756;SDS011;45631;51.962;5.974;2022-10-16T14:02:24;9.38;;;1.73;;
59756;SDS011;45631;51.962;5.974;2022-10-16T14:04:55;8.80;;;1.67;;
59756;SDS011;45631;51.962;5.974;2022-10-16T14:07:28;8.63;;;1.73;;
59756;SDS011;45631;51.962;5.974;2022-10-16T14:10:00;9.35;;;2.05;;
59756;SDS011;45631;51.962;5.974;2022-10-16T14:12:31;11.40;;;1.98;;
59756;SDS011;45631;51.962;5.974;2022-10-16T14:15:00;8.20;;;1.80;;
59756;SDS011;45631;51.962;5.974;2022-10-16T14:17:29;11.48;;;2.17;;
59756;SDS011;45631;51.962;5.974;2022-10-16T14:20:01;7.43;;;1.65;;
59756;SDS011;45631;51.962;5.974;2022-10-16T14:22:33;10.45;;;2.10;;
59756;SDS011;45631;51.962;5.974;2022-10-16T14:25:27;6.70;;;1.58;;
59756;SDS011;45631;51.962;5.974;2022-10-16T14:30:25;7.05;;;1.90;;
59756;SDS011;45631;51.962;5.974;2022-10-16T14:32:54;10.63;;;1.83;;
59756;SDS011;45631;51.962;5.974;2022-10-16T14:35:25;8.25;;;1.73;;
59756;SDS011;45631;51.962;5.974;2022-10-16T14:37:56;8.77;;;2.00;;
59756;SDS011;45631;51.962;5.974;2022-10-16T14:40:28;12.02;;;1.80;;
59756;SDS011;45631;51.962;5.974;2022-10-16T14:42:58;12.77;;;2.17;;
59756;SDS011;45631;51.962;5.974;2022-10-16T14:45:28;7.60;;;1.73;;
59756;SDS011;45631;51.962;5.974;2022-10-16T14:47:58;11.75;;;1.85;;
59756;SDS011;45631;51.962;5.974;2022-10-16T14:50:30;9.33;;;2.00;;
59756;SDS011;45631;51.962;5.974;2022-10-16T14:52:58;10.13;;;1.70;;
59756;SDS011;45631;51.962;5.974;2022-10-16T14:55:28;7.40;;;1.70;;
59756;SDS011;45631;51.962;5.974;2022-10-16T14:57:56;8.82;;;2.00;;
59756;SDS011;45631;51.962;5.974;2022-10-16T15:00:26;9.93;;;1.80;;
59756;SDS011;45631;51.962;5.974;2022-10-16T15:02:57;10.73;;;2.00;;
59756;SDS011;45631;51.962;5.974;2022-10-16T15:05:25;11.40;;;2.15;;
59756;SDS011;45631;51.962;5.974;2022-10-16T15:07:57;7.60;;;1.48;;
59756;SDS011;45631;51.962;5.974;2022-10-16T15:10:26;8.55;;;1.70;;
59756;SDS011;45631;51.962;5.974;2022-10-16T15:12:58;7.97;;;1.60;;
59756;SDS011;45631;51.962;5.974;2022-10-16T15:15:33;9.15;;;1.67;;
59756;SDS011;45631;51.962;5.974;2022-10-16T15:18:03;11.68;;;2.00;;
59756;SDS011;45631;51.962;5.974;2022-10-16T15:20:32;6.05;;;1.80;;
59756;SDS011;45631;51.962;5.974;2022-10-16T15:23:05;12.50;;;2.28;;
59756;SDS011;45631;51.962;5.974;2022-10-16T15:25:43;7.45;;;1.70;;
59756;SDS011;45631;51.962;5.974;2022-10-16T15:28:13;11.27;;;2.22;;
59756;SDS011;45631;51.962;5.974;2022-10-16T15:30:42;9.10;;;3.25;;